Estación Meteorológica Peña el Pijo (Robertgarden) [ 02/03/23 04:42:05 CET ]

Fecha Hora Presion(HPa) Temp (°C) Humedad % Rocio (°C) Viento ( m/s) Direccion Lluvia 1Hora(mm) Lluvia 24H(mm) LLuvia Total(mm)
2012-Dec-13 01:01:13 1005.000 -1.4 83 -3.9         178.19
2012-Dec-13 02:03:18 1004.900 -1.9 84 -4.3         178.19
2012-Dec-13 03:01:13 1004.500 -2.4 84 -4.8         178.19
2012-Dec-13 04:01:12 1004.600 -2.1 85 -4.3         178.19
2012-Dec-13 05:01:13 1004.000 -1.6 85 -3.8         178.19
2012-Dec-13 06:01:13 1003.900 -1.3 85 -3.5         178.19
2012-Dec-13 07:01:12 1004.400 -1.6 85 -3.8         178.19
2012-Dec-13 08:01:16 1004.500 -0.4 87 -2.3         178.19
2012-Dec-13 09:01:14 1004.600 1.3 86 -0.8         178.19
2012-Dec-13 10:01:18 1004.900 4.1 81 1.1         178.19
2012-Dec-13 11:01:13 1005.000 9.6 64 3.1         178.19
2012-Dec-13 12:01:11 1004.800 13.5 52 3.8         178.19
2012-Dec-13 13:01:14 1004.100 15.1 45 3.2         178.19
2012-Dec-13 14:01:15 1003.800 14.9 42 2.0         178.19
2012-Dec-13 15:01:12 1003.700 14.5 42 1.7         178.19
2012-Dec-13 16:01:14 1004.100 12.8 48 2.0         178.19
2012-Dec-13 17:01:16 1004.700 9.8 56 1.4         178.19
2012-Dec-13 18:01:14 1004.800 7.5 62 0.7         178.19
2012-Dec-13 19:01:12 1005.200 5.9 69 0.7         178.19
2012-Dec-13 20:01:12 1005.500 4.3 71 -0.5         178.19
2012-Dec-13 21:01:13 1005.400 3.4 79 0.1         178.19
2012-Dec-13 22:01:14 1005.300 5.6 71 0.8 1.4 S     178.19
2012-Dec-13 23:01:13 1005.600 5.3 65 -0.8         178.19

Temperatura Máxima:15°    Temperatura Mínima:-2°
Presión Máxima:1005.600 Hpa    Presión Mínima:1003.700 Hpa


Volver